Time;durP1;ratioP1;P1;durP2;ratioP2;P2;SDS_P1;SDS_P2;PMS_P1;PMS_P2;Temp;Humidity;BMP_temperature;BMP_pressure;BME280_temperature;BME280_humidity;BME280_pressure;Samples;Min_cycle;Max_cycle;Signal;HPM_P1;HPM_P2
2022/02/23 00:01:27;;;;;;;22.10;6.40;;;;;;;3.86;75.09;100189.84;1619226;87;21027;-74
2022/02/23 00:03:53;;;;;;;14.43;5.10;;;;;;;3.87;75.08;100187.71;1618545;87;21080;-74
2022/02/23 00:06:19;;;;;;;24.30;5.72;;;;;;;3.86;75.06;100183.02;1623772;85;21086;-74
2022/02/23 00:08:46;;;;;;;19.45;5.33;;;;;;;3.87;75.17;100182.17;1618601;87;21467;-74
2022/02/23 00:11:12;;;;;;;16.07;5.03;;;;;;;3.88;75.17;100179.20;1618458;87;21077;-74
2022/02/23 00:13:41;;;;;;;20.82;5.87;;;;;;;3.88;75.27;100174.94;1618103;88;21549;-74
2022/02/23 00:16:07;;;;;;;19.85;5.80;;;;;;;3.87;75.34;100164.27;1627430;87;21117;-74
2022/02/23 00:18:33;;;;;;;20.95;4.97;;;;;;;3.90;75.36;100164.70;1622626;85;21085;-74
2022/02/23 00:21:00;;;;;;;16.80;5.90;;;;;;;3.90;75.39;100157.03;1644226;85;21132;-74
2022/02/23 00:23:26;;;;;;;14.80;5.00;;;;;;;3.90;75.49;100155.75;1626458;87;21513;-74
2022/02/23 00:25:52;;;;;;;14.80;4.58;;;;;;;3.88;75.45;100153.20;1618295;88;21085;-74
2022/02/23 00:28:19;;;;;;;21.07;5.45;;;;;;;3.89;75.45;100151.48;1618436;88;21624;-74
2022/02/23 00:30:47;;;;;;;19.57;5.50;;;;;;;3.89;75.50;100157.88;1623033;85;21057;-74
2022/02/23 00:33:13;;;;;;;19.42;5.60;;;;;;;3.90;75.56;100139.98;1627936;87;21061;-74
2022/02/23 00:35:42;;;;;;;17.27;5.03;;;;;;;3.90;75.61;100126.34;1629046;87;21105;-74
2022/02/23 00:38:09;;;;;;;18.40;5.05;;;;;;;3.90;75.61;100127.20;1617968;87;21074;-74
2022/02/23 00:40:36;;;;;;;18.60;5.67;;;;;;;3.91;75.70;100126.77;1639458;85;21567;-74
2022/02/23 00:43:06;;;;;;;11.60;4.92;;;;;;;3.92;75.76;100130.61;1656839;86;21049;-74
2022/02/23 00:45:34;;;;;;;17.75;4.95;;;;;;;3.93;75.70;100124.66;1632171;86;21571;-74
2022/02/23 00:48:01;;;;;;;10.10;4.78;;;;;;;3.94;75.83;100123.80;1629500;87;21053;-74
2022/02/23 00:50:27;;;;;;;12.00;4.58;;;;;;;3.96;75.84;100117.41;1632140;85;21100;-74
2022/02/23 00:52:54;;;;;;;14.03;5.12;;;;;;;3.95;75.84;100111.44;1644975;86;21156;-74
2022/02/23 00:55:20;;;;;;;23.52;5.58;;;;;;;3.97;75.85;100108.47;1656624;86;21073;-74
2022/02/23 00:57:46;;;;;;;14.58;5.00;;;;;;;3.98;75.87;100105.48;1650682;86;21064;-74
2022/02/23 01:00:16;;;;;;;11.15;4.92;;;;;;;3.97;75.95;100113.58;1634643;85;21077;-75
2022/02/23 01:02:43;;;;;;;17.82;5.53;;;;;;;3.99;76.02;100098.23;1629899;87;21141;-74
2022/02/23 01:05:09;;;;;;;17.27;4.83;;;;;;;3.99;76.00;100100.37;1630163;86;21124;-74
2022/02/23 01:07:36;;;;;;;13.25;8.33;;;;;;;3.99;76.20;100089.28;1651214;86;21089;-74
2022/02/23 01:10:08;;;;;;;20.50;7.03;;;;;;;3.98;76.15;100092.27;1656648;86;21492;-74
2022/02/23 01:12:33;;;;;;;335.13;20.75;;;;;;;3.98;76.16;100090.98;1653918;85;21511;-74
2022/02/23 01:15:00;;;;;;;34.00;7.37;;;;;;;3.99;76.30;100093.12;1642729;86;21073;-74
2022/02/23 01:17:27;;;;;;;12.13;5.60;;;;;;;3.99;76.36;100091.84;1641485;86;21595;-74
2022/02/23 01:19:53;;;;;;;139.50;60.33;;;;;;;4.01;76.44;100099.09;1656390;86;21095;-74
2022/02/23 01:22:19;;;;;;;228.10;50.30;;;;;;;4.03;76.39;100092.70;1629712;86;21155;-74
2022/02/23 01:24:47;;;;;;;20.37;6.08;;;;;;;4.05;76.46;100093.13;1630223;84;21092;-74
2022/02/23 01:27:13;;;;;;;10.97;6.13;;;;;;;4.05;76.48;100105.92;1631276;86;21471;-74
2022/02/23 01:29:39;;;;;;;1999.90;999.90;;;;;;;4.08;76.58;100121.70;1630836;85;21807;-74
2022/02/23 01:32:09;;;;;;;79.35;61.75;;;;;;;4.08;76.58;100103.80;1649704;85;21120;-73
2022/02/23 01:34:35;;;;;;;16.67;7.50;;;;;;;4.10;76.70;100095.70;1656718;86;21073;-74
2022/02/23 01:37:01;;;;;;;16.90;7.50;;;;;;;4.12;76.56;100082.06;1649106;85;21470;-74
2022/02/23 01:39:28;;;;;;;20.97;8.18;;;;;;;4.15;76.73;100109.36;1647564;86;20969;-74
2022/02/23 01:41:54;;;;;;;16.37;8.43;;;;;;;4.18;76.83;100097.39;1647405;86;21502;-73
2022/02/23 01:44:21;;;;;;;13.90;7.47;;;;;;;4.20;76.82;100096.97;1630145;86;21080;-74
2022/02/23 01:46:47;;;;;;;20.45;7.37;;;;;;;4.24;76.88;100097.83;1641273;86;21057;-74
2022/02/23 01:49:13;;;;;;;14.00;7.17;;;;;;;4.24;76.96;100084.61;1638766;85;21075;-74
2022/02/23 01:51:39;;;;;;;11.20;7.15;;;;;;;4.26;76.83;100082.91;1656815;86;21072;-74
2022/02/23 01:54:05;;;;;;;16.50;7.35;;;;;;;4.28;76.94;100078.64;1636189;86;21132;-74
2022/02/23 01:56:31;;;;;;;13.03;6.13;;;;;;;4.32;76.92;100082.05;1630588;86;21322;-73
2022/02/23 01:58:57;;;;;;;13.03;6.67;;;;;;;4.33;77.00;100078.64;1647986;85;21402;-73
2022/02/23 02:01:23;;;;;;;65.67;9.30;;;;;;;4.36;77.07;100069.69;1656574;86;21853;-74
2022/02/23 02:03:49;;;;;;;11.83;5.65;;;;;;;4.37;77.11;100071.39;1647205;86;21089;-74
2022/02/23 02:06:15;;;;;;;12.40;5.87;;;;;;;4.41;77.13;100082.06;1651379;85;21595;-74
2022/02/23 02:08:42;;;;;;;380.70;228.50;;;;;;;4.44;77.20;100084.63;1650934;86;20974;-74
2022/02/23 02:11:08;;;;;;;11.10;5.83;;;;;;;4.46;77.27;100076.95;1631993;86;20906;-74
2022/02/23 02:13:33;;;;;;;10.47;6.43;;;;;;;4.49;77.68;100078.23;1632041;87;20981;-74
2022/02/23 02:15:59;;;;;;;11.95;5.85;;;;;;;4.52;77.26;100080.79;1640271;86;20919;-74
2022/02/23 02:18:25;;;;;;;13.72;6.67;;;;;;;4.54;77.37;100081.64;1651760;86;20897;-74
2022/02/23 02:20:51;;;;;;;10.33;5.80;;;;;;;4.55;77.40;100087.19;1658917;85;21050;-74
2022/02/23 02:23:17;;;;;;;9.57;5.60;;;;;;;4.58;77.52;100091.03;1613612;87;20898;-74
2022/02/23 02:25:44;;;;;;;11.63;5.80;;;;;;;4.60;77.59;100094.02;1642510;86;21156;-74
2022/02/23 02:28:10;;;;;;;11.35;5.35;;;;;;;4.63;77.55;100109.38;1632002;87;20937;-73
2022/02/23 02:30:37;;;;;;;11.38;6.08;;;;;;;4.67;77.57;100105.53;1639350;85;20949;-74
2022/02/23 02:33:04;;;;;;;5.70;4.95;;;;;;;4.69;77.67;100125.14;1647166;86;20930;-74
2022/02/23 02:38:11;;;;;;;7.67;4.05;;;;;;;4.81;77.61;100131.97;1870503;75;28119;-72
2022/02/23 02:40:38;;;;;;;5.78;4.03;;;;;;;4.83;77.72;100132.83;1843502;77;20999;-72
2022/02/23 02:43:07;;;;;;;2.95;2.70;;;;;;;4.86;77.76;100140.08;1856866;77;20941;-72
2022/02/23 02:45:32;;;;;;;2.95;2.65;;;;;;;4.90;77.88;100145.63;1812011;78;21452;-72
2022/02/23 02:48:00;;;;;;;2.87;2.20;;;;;;;4.95;78.20;100154.59;1785563;80;20968;-72
2022/02/23 02:50:27;;;;;;;7.67;2.27;;;;;;;4.98;77.98;100154.59;1818643;78;20972;-72
2022/02/23 02:52:53;;;;;;;2.75;2.27;;;;;;;5.00;78.01;100174.66;1787840;79;21006;-72
2022/02/23 02:55:20;;;;;;;3.60;2.17;;;;;;;5.03;78.10;100186.19;1794649;78;20878;-72
2022/02/23 02:57:46;;;;;;;4.78;2.50;;;;;;;5.04;78.11;100184.05;1779145;80;21167;-72
2022/02/23 03:00:14;;;;;;;9.23;4.12;;;;;;;5.04;78.30;100189.18;1801093;77;20990;-72
2022/02/23 03:02:39;;;;;;;9.08;2.67;;;;;;;5.05;78.25;100176.80;1763478;80;21040;-72
2022/02/23 03:05:07;;;;;;;7.63;2.80;;;;;;;5.05;78.20;100207.97;1778534;79;21563;-72
2022/02/23 03:07:35;;;;;;;8.08;6.78;;;;;;;5.04;78.26;100198.14;1773158;80;21078;-71
2022/02/23 03:10:01;;;;;;;6.70;4.03;;;;;;;5.04;78.18;100211.39;1819632;78;21090;-72
2022/02/23 03:12:27;;;;;;;9.98;4.15;;;;;;;5.03;78.44;100222.48;1797606;79;21016;-72
2022/02/23 03:14:53;;;;;;;19.70;4.67;;;;;;;5.02;78.35;100232.31;1798330;79;20992;-72
2022/02/23 03:17:19;;;;;;;7.03;3.13;;;;;;;5.01;78.46;100239.57;1796957;79;21374;-71
2022/02/23 03:19:45;;;;;;;15.20;3.87;;;;;;;5.00;78.36;100246.40;1794342;79;20949;-72
2022/02/23 03:22:11;;;;;;;17.87;3.40;;;;;;;4.98;78.44;100257.93;1793919;79;21036;-71
2022/02/23 03:24:36;;;;;;;22.00;4.37;;;;;;;4.98;78.48;100259.64;1794732;79;20866;-72
2022/02/23 03:27:03;;;;;;;25.08;4.55;;;;;;;4.97;78.46;100273.30;1785526;79;21440;-72
2022/02/23 03:29:29;;;;;;;14.20;4.45;;;;;;;4.95;78.56;100264.33;1794161;79;21467;-72
2022/02/23 03:31:55;;;;;;;25.30;4.30;;;;;;;4.94;78.56;100278.42;1794530;79;20866;-72
2022/02/23 03:34:21;;;;;;;24.70;4.00;;;;;;;4.93;78.62;100280.55;1794031;79;21709;-71
2022/02/23 03:36:47;;;;;;;18.50;3.73;;;;;;;4.93;78.64;100277.99;1794372;79;20996;-72
2022/02/23 03:39:19;;;;;;;18.27;4.15;;;;;;;4.90;78.59;100294.64;1754200;78;20968;-72
2022/02/23 03:41:45;;;;;;;25.70;3.93;;;;;;;4.89;78.61;100304.45;1794581;79;20897;-71
2022/02/23 03:44:11;;;;;;;15.90;3.65;;;;;;;4.88;78.64;100301.47;1794181;79;20981;-71
2022/02/23 03:46:39;;;;;;;29.52;4.15;;;;;;;4.88;78.70;100320.67;1793997;79;20980;-72
2022/02/23 03:49:05;;;;;;;23.77;4.22;;;;;;;4.87;78.70;100321.53;1793983;79;21111;-71
2022/02/23 03:51:32;;;;;;;19.52;3.52;;;;;;;4.86;78.72;100317.26;1793480;79;21241;-71
2022/02/23 03:53:58;;;;;;;21.02;3.65;;;;;;;4.85;78.74;100344.58;1793467;79;21453;-72
2022/02/23 03:56:39;;;;;;;33.47;4.77;;;;;;;4.83;78.78;100328.35;1792869;79;20905;-72
2022/02/23 03:59:12;;;;;;;19.82;4.17;;;;;;;4.82;78.77;100341.16;1783078;79;21396;-72
2022/02/23 04:01:41;;;;;;;19.77;4.33;;;;;;;4.81;78.73;100354.39;1785622;79;20936;-72
2022/02/23 04:04:08;;;;;;;26.52;4.50;;;;;;;4.80;78.77;100353.95;1795667;79;20925;-72
2022/02/23 04:06:36;;;;;;;23.85;4.60;;;;;;;4.77;78.81;100362.91;1795308;79;20905;-71
2022/02/23 04:09:05;;;;;;;25.12;4.55;;;;;;;4.77;78.81;100368.45;1795028;79;20933;-72
2022/02/23 04:11:35;;;;;;;30.97;6.42;;;;;;;4.77;78.80;100374.44;1782464;79;20894;-72
2022/02/23 04:14:02;;;;;;;21.23;4.90;;;;;;;4.76;78.86;100376.56;1795702;79;20873;-72
2022/02/23 04:16:28;;;;;;;27.75;5.22;;;;;;;4.75;78.82;100380.41;1794839;79;20941;-72
2022/02/23 04:18:54;;;;;;;20.08;4.20;;;;;;;4.74;78.96;100384.67;1791208;79;20902;-71
2022/02/23 04:21:21;;;;;;;22.02;4.15;;;;;;;4.73;78.88;100393.20;1793250;79;21079;-71
2022/02/23 04:23:48;;;;;;;25.05;4.75;;;;;;;4.73;78.89;100390.64;1794128;79;20933;-72
2022/02/23 04:26:17;;;;;;;14.80;3.50;;;;;;;4.72;78.89;100396.61;1793906;79;20972;-72
2022/02/23 04:28:44;;;;;;;25.50;4.37;;;;;;;4.71;78.98;100410.27;1793940;79;21096;-72
2022/02/23 04:31:10;;;;;;;18.48;4.17;;;;;;;4.70;78.94;100415.38;1810516;78;21531;-72
2022/02/23 04:33:37;;;;;;;21.82;5.30;;;;;;;4.69;78.91;100410.69;1812702;78;21023;-72
2022/02/23 04:36:09;;;;;;;23.55;4.25;;;;;;;4.69;78.99;100414.95;1803050;79;21024;-72
2022/02/23 04:38:40;;;;;;;24.57;4.47;;;;;;;4.69;78.95;100416.23;1797583;78;20973;-72
2022/02/23 04:41:07;;;;;;;14.07;3.65;;;;;;;4.67;78.96;100421.80;1804030;78;21457;-72
2022/02/23 04:43:35;;;;;;;14.25;4.03;;;;;;;4.66;78.96;100426.07;1802784;78;21108;-72
2022/02/23 04:46:06;;;;;;;22.55;4.87;;;;;;;4.65;78.97;100423.94;1793943;79;21025;-72
2022/02/23 04:48:32;;;;;;;19.25;4.15;;;;;;;4.64;79.01;100430.33;1796805;79;20955;-72
2022/02/23 04:50:58;;;;;;;22.97;4.57;;;;;;;4.64;78.98;100438.02;1800206;78;20880;-71
2022/02/23 04:53:24;;;;;;;25.00;13.23;;;;;;;4.64;79.00;100437.59;1799068;78;20890;-72
2022/02/23 04:55:50;;;;;;;29.63;4.90;;;;;;;4.64;79.03;100436.73;1800287;79;21063;-72
2022/02/23 04:58:16;;;;;;;24.05;4.67;;;;;;;4.63;79.00;100441.42;1802972;79;21004;-72
2022/02/23 05:00:43;;;;;;;22.60;3.65;;;;;;;4.63;79.05;100438.86;1818888;78;20961;-71
2022/02/23 05:03:09;;;;;;;23.90;3.65;;;;;;;4.63;79.03;100447.82;1813610;78;20981;-72
2022/02/23 05:05:35;;;;;;;15.05;3.70;;;;;;;4.63;79.02;100449.95;1816961;78;20996;-72
2022/02/23 05:08:02;;;;;;;;;;;;;;;4.63;79.05;100460.20;1806090;78;21116;-72
2022/02/23 05:10:28;;;;;;;23.57;5.03;;;;;;;4.63;79.10;100464.05;1812697;78;20680;-72
2022/02/23 05:12:54;;;;;;;21.40;4.17;;;;;;;4.62;79.07;100463.61;1814448;78;20857;-72
2022/02/23 05:15:21;;;;;;;23.35;3.70;;;;;;;4.62;79.10;100462.75;1780122;78;21027;-72
2022/02/23 05:17:47;;;;;;;;;;;;;;;4.63;79.21;100464.47;1789812;80;20981;-72
2022/02/23 05:20:14;;;;;;;32.50;4.00;;;;;;;4.62;79.15;100471.29;1791117;80;20461;-72
2022/02/23 05:22:40;;;;;;;20.95;3.75;;;;;;;4.62;79.09;100471.72;1789884;80;21033;-72
2022/02/23 05:25:07;;;;;;;24.18;4.00;;;;;;;4.62;79.10;100476.84;1789914;79;20996;-72
2022/02/23 05:27:33;;;;;;;19.20;3.17;;;;;;;4.62;79.10;100477.69;1790103;80;21491;-73
2022/02/23 05:29:59;;;;;;;19.07;3.60;;;;;;;4.62;79.11;100485.38;1783203;79;20968;-72
2022/02/23 05:32:25;;;;;;;25.80;4.00;;;;;;;4.63;79.09;100486.23;1780931;80;21265;-72
2022/02/23 05:34:57;;;;;;;24.57;4.70;;;;;;;4.62;79.08;100491.78;1775402;80;21615;-72
2022/02/23 05:37:23;;;;;;;32.30;4.10;;;;;;;4.62;79.12;100503.30;1777475;79;20988;-72
2022/02/23 05:39:49;;;;;;;23.40;4.80;;;;;;;4.63;79.08;100502.88;1759517;81;21154;-73
2022/02/23 05:42:24;;;;;;;31.30;3.62;;;;;;;4.63;79.08;100518.24;1762262;81;21568;-72
2022/02/23 05:44:50;;;;;;;23.42;3.95;;;;;;;4.65;79.10;100529.35;1762578;81;21095;-72
2022/02/23 05:47:16;;;;;;;32.63;4.15;;;;;;;4.65;79.12;100530.64;1761905;81;20977;-72
2022/02/23 05:49:42;;;;;;;19.93;3.77;;;;;;;4.65;79.10;100534.05;1762317;81;21004;-72
2022/02/23 05:52:08;;;;;;;22.53;3.57;;;;;;;4.68;79.17;100542.15;1761118;80;21988;-72
2022/02/23 05:54:34;;;;;;;22.73;3.90;;;;;;;4.69;79.08;100546.42;1760413;80;20936;-72
2022/02/23 05:57:00;;;;;;;18.87;3.77;;;;;;;4.69;79.06;100555.39;1755686;81;21839;-72
2022/02/23 05:59:26;;;;;;;22.93;4.45;;;;;;;4.72;79.09;100557.97;1762248;80;21547;-72
2022/02/23 06:01:52;;;;;;;29.23;3.60;;;;;;;4.73;79.08;100566.52;1759178;81;22151;-73
2022/02/23 06:04:27;;;;;;;30.92;4.42;;;;;;;4.73;79.07;100567.80;1758413;80;21088;-73
2022/02/23 06:06:53;;;;;;;23.33;3.90;;;;;;;4.75;79.08;100569.94;1731869;81;20862;-73
2022/02/23 06:09:19;;;;;;;21.13;3.40;;;;;;;4.75;79.05;100577.62;1762566;81;21753;-73
2022/02/23 06:11:52;;;;;;;24.95;4.42;;;;;;;4.74;79.05;100589.58;1757129;81;21556;-73
2022/02/23 06:14:18;;;;;;;20.70;4.25;;;;;;;4.74;79.07;100590.86;1762338;81;21464;-73
2022/02/23 06:16:44;;;;;;;21.35;3.62;;;;;;;4.73;79.08;100598.11;1807757;78;21086;-72
2022/02/23 06:19:13;;;;;;;17.92;3.25;;;;;;;4.71;79.06;100605.34;1813836;79;21529;-72
2022/02/23 06:21:39;;;;;;;13.93;3.07;;;;;;;4.68;79.10;100604.89;1812886;79;20950;-73
2022/02/23 06:24:06;;;;;;;21.27;3.10;;;;;;;4.67;79.14;100612.60;1814724;79;21735;-73
2022/02/23 06:26:32;;;;;;;25.48;3.98;;;;;;;4.67;79.14;100622.84;1811126;79;21542;-73
2022/02/23 06:28:58;;;;;;;19.47;3.77;;;;;;;4.67;79.17;100633.09;1814398;79;20910;-72
2022/02/23 06:31:24;;;;;;;18.60;3.70;;;;;;;4.68;79.16;100639.92;1814785;77;21138;-72
2022/02/23 06:33:50;;;;;;;25.20;9.08;;;;;;;4.68;79.17;100644.59;1813594;77;21439;-72
2022/02/23 06:36:18;;;;;;;21.52;4.03;;;;;;;4.68;79.18;100648.44;1814272;79;20973;-73
2022/02/23 06:38:45;;;;;;;21.30;4.15;;;;;;;4.70;79.18;100645.89;1797234;79;21354;-72
2022/02/23 06:41:18;;;;;;;22.30;3.47;;;;;;;4.72;79.20;100648.89;1756709;81;21303;-73
2022/02/23 06:43:47;;;;;;;21.15;3.67;;;;;;;4.73;79.16;100653.17;1760613;80;21452;-73
2022/02/23 06:46:14;;;;;;;18.50;3.60;;;;;;;4.76;79.15;100651.92;1765632;81;21501;-73
2022/02/23 06:48:41;;;;;;;16.97;2.77;;;;;;;4.77;79.14;100654.91;1766900;80;21502;-73
2022/02/23 06:51:08;;;;;;;22.00;3.65;;;;;;;4.80;79.14;100665.19;1755617;80;21127;-73
2022/02/23 06:53:35;;;;;;;23.00;4.80;;;;;;;4.83;79.13;100676.74;1745445;81;21630;-73
2022/02/23 06:56:02;;;;;;;19.15;4.00;;;;;;;4.85;79.12;100667.79;1745626;80;21772;-73
2022/02/23 06:58:28;;;;;;;18.45;3.98;;;;;;;4.88;79.13;100681.48;1782724;79;21016;-72
2022/02/23 07:00:56;;;;;;;19.02;3.87;;;;;;;4.90;79.10;100683.63;1605175;79;10000501;-73
2022/02/23 07:03:22;;;;;;;18.40;3.25;;;;;;;4.92;79.08;100683.65;1763012;79;20896;-73
2022/02/23 07:05:48;;;;;;;24.67;3.98;;;;;;;4.95;79.16;100677.27;1766863;80;21373;-73
2022/02/23 07:08:14;;;;;;;25.33;4.63;;;;;;;5.02;79.12;100689.28;1771085;80;21524;-73
2022/02/23 07:10:40;;;;;;;29.42;4.20;;;;;;;5.09;79.11;100701.30;1764561;79;21192;-73
2022/02/23 07:13:09;;;;;;;13.62;2.90;;;;;;;5.14;78.98;100693.64;1754002;81;21524;-73
2022/02/23 07:15:35;;;;;;;22.32;3.77;;;;;;;5.17;79.04;100698.37;1735515;81;21416;-73
2022/02/23 07:18:03;;;;;;;22.95;4.17;;;;;;;5.20;78.96;100703.48;1746719;79;21910;-73
2022/02/23 07:20:28;;;;;;;16.57;3.30;;;;;;;5.28;79.06;100711.23;1772272;79;21428;-73
2022/02/23 07:22:55;;;;;;;29.93;26.70;;;;;;;5.37;79.00;100707.87;1768881;81;21151;-72
2022/02/23 07:25:21;;;;;;;1999.90;999.90;;;;;;;5.41;78.98;100718.59;1594245;82;10000511;-72
2022/02/23 07:27:47;;;;;;;1732.65;950.68;;;;;;;5.44;78.85;100728.87;1740245;80;21488;-72
2022/02/23 07:30:18;;;;;;;627.20;576.57;;;;;;;5.45;78.88;100738.27;1764421;80;21321;-73
2022/02/23 07:32:45;;;;;;;144.25;132.93;;;;;;;5.48;78.85;100745.56;1768528;81;20905;-73
2022/02/23 07:35:13;;;;;;;476.67;438.93;;;;;;;5.50;78.80;100751.56;1739776;81;20963;-73
2022/02/23 07:37:45;;;;;;;45.10;40.67;;;;;;;5.51;78.79;100753.70;1769238;79;20858;-73
2022/02/23 07:40:15;;;;;;;20.50;11.83;;;;;;;5.54;78.74;100761.42;1770754;79;21464;-73
2022/02/23 07:42:43;;;;;;;334.85;301.23;;;;;;;5.57;78.71;100767.86;1757594;79;21432;-73
2022/02/23 07:45:10;;;;;;;1369.10;679.13;;;;;;;5.59;78.67;100763.17;1822600;78;20901;-73
2022/02/23 07:47:39;;;;;;;14.38;3.00;;;;;;;5.62;78.60;100759.34;1789913;78;21492;-73
2022/02/23 07:50:13;;;;;;;11.28;1.85;;;;;;;5.70;78.66;100772.22;1800947;78;20964;-73
2022/02/23 07:52:36;;;;;;;16.67;3.17;;;;;;;5.81;78.65;100773.11;1817395;78;21429;-73
2022/02/23 07:55:04;;;;;;;12.73;2.67;;;;;;;5.90;78.62;100764.64;1819650;78;21398;-73
2022/02/23 07:57:30;;;;;;;17.48;2.90;;;;;;;5.99;78.58;100777.53;1814934;78;21076;-73
2022/02/23 07:59:56;;;;;;;10.93;2.30;;;;;;;6.07;78.43;100779.70;1813600;78;20886;-73
2022/02/23 08:02:23;;;;;;;11.33;2.42;;;;;;;6.15;78.40;100786.16;1815852;78;21017;-73
2022/02/23 08:04:52;;;;;;;12.18;2.33;;;;;;;6.17;78.21;100789.17;1810689;78;21119;-73
2022/02/23 08:07:18;;;;;;;11.38;3.12;;;;;;;6.17;78.18;100810.14;1809173;78;21493;-73
2022/02/23 08:09:47;;;;;;;13.10;2.12;;;;;;;6.17;78.27;100801.16;1812633;78;21298;-73
2022/02/23 08:12:13;;;;;;;;;;;;;;;6.22;78.23;100814.88;1809367;78;21044;-73
2022/02/23 08:14:40;;;;;;;12.28;2.12;;;;;;;6.27;78.08;100815.30;1793864;79;20121;-73
2022/02/23 08:19:51;;;;;;;11.80;2.50;;;;;;;6.33;78.14;100818.31;1815818;78;20849;-73
2022/02/23 08:22:19;;;;;;;11.88;2.10;;;;;;;6.45;78.17;100820.08;1800365;78;21520;-73
2022/02/23 08:24:48;;;;;;;11.08;2.20;;;;;;;6.61;77.81;100821.86;1818468;78;20925;-73
2022/02/23 08:27:20;;;;;;;16.65;3.27;;;;;;;6.68;77.77;100827.88;1800656;78;21354;-73
2022/02/23 08:29:54;;;;;;;14.63;2.35;;;;;;;6.69;77.83;100833.02;1814617;78;20854;-73
2022/02/23 08:32:27;;;;;;;10.55;2.00;;;;;;;6.72;77.80;100837.31;1815301;78;20936;-73
2022/02/23 08:34:52;;;;;;;12.47;2.17;;;;;;;6.74;77.44;100842.03;1813305;78;20913;-73
2022/02/23 08:37:19;;;;;;;11.03;2.72;;;;;;;6.80;77.76;100842.02;1813286;78;20878;-73
2022/02/23 08:39:48;;;;;;;16.93;2.75;;;;;;;6.89;77.56;100849.33;1804783;78;20874;-73
2022/02/23 08:42:17;;;;;;;18.52;3.00;;;;;;;6.97;77.47;100847.64;1820043;78;20902;-73
2022/02/23 08:44:43;;;;;;;13.18;2.80;;;;;;;7.02;77.26;100850.22;1775124;78;20906;-73
2022/02/23 08:47:10;;;;;;;16.05;2.58;;;;;;;7.01;76.69;100852.79;1778559;80;20929;-73
2022/02/23 08:49:37;;;;;;;14.80;2.75;;;;;;;7.00;76.97;100868.64;1818715;78;25430;-73
2022/02/23 08:52:03;;;;;;;;;;;;;;;7.00;76.66;100870.36;1791887;78;20874;-73
2022/02/23 08:54:29;;;;;;;10.95;2.35;;;;;;;6.95;76.41;100863.48;1774643;80;20098;-73
2022/02/23 08:56:56;;;;;;;10.33;2.23;;;;;;;6.95;76.75;100867.34;1768258;80;21311;-73
2022/02/23 08:59:22;;;;;;;16.00;2.52;;;;;;;6.97;76.77;100878.49;1817020;78;20917;-73
2022/02/23 09:01:48;;;;;;;6.90;2.27;;;;;;;7.01;76.83;100878.08;1780910;80;20862;-73
2022/02/23 09:04:14;;;;;;;;;;;;;;;7.07;76.80;100888.80;1790569;78;20925;-73
2022/02/23 09:06:41;;;;;;;11.43;2.00;;;;;;;7.06;75.70;100896.09;1812620;78;20219;-73
2022/02/23 09:09:11;;;;;;;12.18;2.45;;;;;;;6.98;75.39;100891.78;1791486;78;20870;-73
2022/02/23 09:11:38;;;;;;;9.35;2.33;;;;;;;6.96;75.95;100889.62;1780230;79;20850;-73
2022/02/23 09:14:04;;;;;;;12.33;1.98;;;;;;;6.96;76.01;100901.63;1808203;78;20910;-73
2022/02/23 09:16:31;;;;;;;14.43;2.02;;;;;;;6.95;75.73;100895.63;1808785;78;20914;-73
2022/02/23 09:18:58;;;;;;;14.80;2.40;;;;;;;6.92;75.54;100894.33;1791838;79;21327;-73
2022/02/23 09:21:25;;;;;;;9.55;2.08;;;;;;;6.90;75.67;100920.45;1793667;79;20925;-72
2022/02/23 09:23:51;;;;;;;7.55;2.35;;;;;;;6.90;75.48;100915.31;1777028;79;20907;-72
2022/02/23 09:26:19;;;;;;;11.50;2.98;;;;;;;6.88;75.44;100923.44;1791890;78;20854;-72
2022/02/23 09:28:47;;;;;;;8.28;1.77;;;;;;;6.86;75.45;100929.00;1792055;80;20925;-72
2022/02/23 09:31:13;;;;;;;11.48;2.50;;;;;;;6.85;75.48;100950.84;1791812;80;20922;-72
2022/02/23 09:33:41;;;;;;;12.75;2.58;;;;;;;6.80;75.08;100940.54;1791183;79;20908;-73
2022/02/23 09:36:08;;;;;;;18.10;3.30;;;;;;;6.77;75.14;100937.09;1755421;80;20957;-73
2022/02/23 09:38:34;;;;;;;;;;;;;;;6.73;75.17;100962.37;1763328;79;20978;-73
2022/02/23 09:41:05;;;;;;;12.68;2.27;;;;;;;6.69;75.08;100964.08;1644543;81;393822;-73
2022/02/23 09:57:22;;;;;;;13.95;2.60;;;;;;;6.96;74.86;100970.61;1784429;79;23311;-78
2022/02/23 09:59:48;;;;;;;11.33;2.62;;;;;;;6.95;74.80;100968.89;1763057;79;20960;-78
2022/02/23 10:02:15;;;;;;;21.07;3.30;;;;;;;6.96;74.60;100975.75;1777221;80;20960;-78
2022/02/23 10:04:42;;;;;;;5.80;2.00;;;;;;;6.99;74.64;100981.33;1757183;80;20933;-78
2022/02/23 10:07:09;;;;;;;8.25;2.10;;;;;;;7.01;74.32;100980.91;1736712;81;20960;-78
2022/02/23 10:09:47;;;;;;;9.20;2.55;;;;;;;7.03;74.42;100986.92;1758170;80;21353;-78
2022/02/23 10:12:24;;;;;;;10.35;2.25;;;;;;;7.06;74.55;100997.65;1769361;79;21539;-79
2022/02/23 10:14:52;;;;;;;12.47;2.45;;;;;;;7.08;74.56;101003.66;1773168;79;21025;-78
2022/02/23 10:17:43;;;;;;;12.93;2.15;;;;;;;7.08;74.20;101004.94;1760703;80;21504;-78
2022/02/23 10:20:34;;;;;;;10.80;2.35;;;;;;;7.04;74.02;101010.50;1626654;80;10000936;-79
2022/02/23 10:23:20;;;;;;;10.13;1.67;;;;;;;7.04;74.02;101032.77;1751876;80;21014;-79
2022/02/23 10:26:02;;;;;;;11.25;1.90;;;;;;;7.05;73.98;101017.36;1745564;80;21030;-78
2022/02/23 10:28:41;;;;;;;8.23;2.10;;;;;;;7.06;73.98;101037.08;1775475;80;20902;-78
2022/02/23 10:31:10;;;;;;;8.95;2.00;;;;;;;7.08;73.69;101033.23;1759411;79;21019;-79
2022/02/23 10:33:39;;;;;;;8.75;2.22;;;;;;;7.07;73.84;101029.80;1785384;80;21607;-79
2022/02/23 10:36:16;;;;;;;8.53;2.30;;;;;;;7.08;73.63;101043.52;1786935;78;21055;-79
2022/02/23 10:38:46;;;;;;;11.53;1.87;;;;;;;7.10;73.60;101045.23;1775917;80;21635;-79
2022/02/23 10:41:32;;;;;;;16.05;2.77;;;;;;;7.15;73.62;101051.69;1754753;80;21036;-79
2022/02/23 10:44:00;;;;;;;19.27;10.08;;;;;;;7.21;73.73;101047.44;1746669;80;21459;-79
2022/02/23 10:46:26;;;;;;;13.00;3.05;;;;;;;7.31;73.72;101056.89;1750453;80;20973;-79
2022/02/23 10:48:59;;;;;;;10.80;2.17;;;;;;;7.41;73.62;101050.06;1794461;79;21016;-79
2022/02/23 11:04:38;;;;;;;9.60;2.50;;;;;;;7.66;72.26;101075.47;1763693;80;22304;-73
2022/02/23 11:07:05;;;;;;;7.33;2.10;;;;;;;7.59;72.33;101079.73;1776371;78;20977;-73
2022/02/23 11:09:34;;;;;;;14.13;2.42;;;;;;;7.56;72.24;101082.30;1778426;78;21015;-73
2022/02/23 11:12:17;;;;;;;11.83;1.72;;;;;;;7.53;71.94;101079.70;1723803;81;21479;-73
2022/02/23 11:14:44;;;;;;;8.85;3.00;;;;;;;7.51;72.01;101088.27;1746601;81;21558;-73
2022/02/23 11:17:11;;;;;;;16.57;2.72;;;;;;;7.48;72.08;101090.83;1758665;79;20993;-73
2022/02/23 11:19:41;;;;;;;11.28;2.45;;;;;;;7.44;71.92;101100.67;1768866;79;20978;-73
2022/02/23 11:22:08;;;;;;;7.62;2.10;;;;;;;7.45;71.69;101081.81;1747449;80;21500;-73
2022/02/23 11:24:39;;;;;;;10.82;2.25;;;;;;;7.46;71.69;101104.12;1783491;79;22134;-73
2022/02/23 11:27:10;;;;;;;8.63;2.40;;;;;;;7.48;71.84;101108.42;1742739;80;20925;-73
2022/02/23 11:30:05;;;;;;;7.60;2.25;;;;;;;7.51;71.84;101116.15;1747119;80;21556;-73
2022/02/23 11:32:41;;;;;;;12.73;2.12;;;;;;;7.56;71.95;101109.31;1743014;81;21396;-73
2022/02/23 11:35:11;;;;;;;9.53;1.82;;;;;;;7.61;71.96;101114.48;1750665;81;21532;-73
2022/02/23 11:37:36;;;;;;;11.25;2.25;;;;;;;7.69;71.80;101118.37;1775284;79;21496;-73
2022/02/23 11:40:04;;;;;;;12.50;1.93;;;;;;;7.73;71.74;101131.69;1763011;79;20898;-73
2022/02/23 11:42:36;;;;;;;7.78;1.72;;;;;;;7.78;71.44;101139.00;1752722;80;20964;-73
2022/02/23 11:45:13;;;;;;;13.45;2.15;;;;;;;7.82;71.21;101123.97;1773377;79;20895;-73
2022/02/23 11:47:50;;;;;;;11.28;3.08;;;;;;;7.85;71.38;101131.70;1782488;79;20893;-73
2022/02/23 11:50:34;;;;;;;7.33;2.05;;;;;;;7.87;71.19;101129.56;1748945;80;20928;-73
2022/02/23 11:53:13;;;;;;;9.33;2.12;;;;;;;7.96;71.52;101133.89;1770494;80;20921;-73
2022/02/23 11:55:42;;;;;;;15.08;2.08;;;;;;;8.03;71.40;101143.78;1751211;79;21465;-73
2022/02/23 11:58:48;;;;;;;8.60;2.77;;;;;;;8.05;71.36;101148.08;1753126;80;20905;-74
2022/02/23 12:01:16;;;;;;;13.78;2.12;;;;;;;8.08;71.41;101149.37;1724229;80;21524;-73
2022/02/23 12:04:13;;;;;;;12.10;2.15;;;;;;;8.13;71.23;101154.11;1748491;81;20917;-73